Time;durP1;ratioP1;P1;durP2;ratioP2;P2;SDS_P1;SDS_P2;PMS_P1;PMS_P2;Temp;Humidity;BMP_temperature;BMP_pressure;BME280_temperature;BME280_humidity;BME280_pressure;Samples;Min_cycle;Max_cycle;Signal;HPM_P1;HPM_P2
2023/04/28 00:01:20;;;;;;;0.20;0.20;;;;;;;13.61;68.88;100483.84;5039430;28;20021;-63
2023/04/28 00:03:52;;;;;;;0.20;0.20;;;;;;;13.58;67.88;100481.81;5039152;28;20353;-64
2023/04/28 00:06:20;;;;;;;0.20;0.20;;;;;;;13.65;68.27;100491.50;5057251;28;20033;-63
2023/04/28 00:08:48;;;;;;;0.20;0.20;;;;;;;13.51;69.28;100481.69;5039448;28;20391;-64
2023/04/28 00:11:16;;;;;;;0.20;0.20;;;;;;;13.56;68.92;100492.53;5038963;28;20060;-65
2023/04/28 00:13:44;;;;;;;0.20;0.20;;;;;;;13.57;69.00;100488.56;5041508;28;20025;-67
2023/04/28 00:16:12;;;;;;;0.20;0.20;;;;;;;13.45;69.56;100480.41;5041752;28;20036;-64
2023/04/28 00:18:43;;;;;;;0.20;0.20;;;;;;;13.52;67.79;100486.09;5038962;28;20029;-64
2023/04/28 00:21:08;;;;;;;0.20;0.20;;;;;;;13.58;67.07;100493.00;5038819;28;20063;-64
2023/04/28 00:23:36;;;;;;;0.20;0.20;;;;;;;13.54;67.95;100485.72;5038852;28;20032;-64
2023/04/28 00:26:02;;;;;;;0.20;0.20;;;;;;;13.50;69.37;100493.25;5039168;28;20044;-65
2023/04/28 00:28:27;;;;;;;0.20;0.20;;;;;;;13.57;69.01;100490.56;5038581;28;20080;-65
2023/04/28 00:30:55;;;;;;;0.20;0.20;;;;;;;13.51;69.51;100484.47;5038496;28;20079;-64
2023/04/28 00:33:23;;;;;;;0.28;0.28;;;;;;;13.38;69.50;100490.66;5038452;28;20476;-66
2023/04/28 00:35:58;;;;;;;0.20;0.20;;;;;;;13.40;69.54;100483.50;5038334;28;20040;-64
2023/04/28 00:38:26;;;;;;;0.20;0.20;;;;;;;13.39;69.36;100484.69;5038278;28;20027;-63
2023/04/28 00:40:56;;;;;;;0.20;0.20;;;;;;;13.48;69.34;100492.81;5038291;28;20033;-64
2023/04/28 00:43:24;;;;;;;0.20;0.20;;;;;;;13.45;70.32;100488.78;5038659;28;20478;-67
2023/04/28 00:45:50;;;;;;;0.20;0.20;;;;;;;13.41;69.94;100484.31;5038799;28;20384;-66
2023/04/28 00:48:17;;;;;;;0.20;0.20;;;;;;;13.41;70.14;100473.94;5038257;28;20055;-63
2023/04/28 00:50:46;;;;;;;0.20;0.20;;;;;;;13.42;70.00;100481.13;5038213;28;20025;-63
2023/04/28 00:53:12;;;;;;;0.20;0.20;;;;;;;13.44;70.26;100484.38;5037724;28;20037;-68
2023/04/28 00:55:38;;;;;;;0.20;0.20;;;;;;;13.43;70.11;100488.34;5038030;28;20063;-64
2023/04/28 00:58:05;;;;;;;0.20;0.20;;;;;;;13.43;70.67;100477.19;5038036;28;20024;-65
2023/04/28 01:00:34;;;;;;;0.20;0.20;;;;;;;13.40;70.87;100477.91;5037240;28;20037;-64
2023/04/28 01:03:02;;;;;;;0.20;0.20;;;;;;;13.36;71.56;100471.44;5037679;28;20021;-64
2023/04/28 01:05:29;;;;;;;0.20;0.20;;;;;;;13.26;70.19;100477.66;5037842;28;20033;-65
2023/04/28 01:07:55;;;;;;;0.20;0.20;;;;;;;13.26;69.93;100477.66;5038089;28;20090;-63
2023/04/28 01:10:22;;;;;;;0.20;0.20;;;;;;;13.14;69.64;100469.47;5037689;28;20115;-64
2023/04/28 01:12:50;;;;;;;0.20;0.20;;;;;;;13.30;67.39;100478.53;5038094;28;20039;-64
2023/04/28 01:15:20;;;;;;;0.20;0.20;;;;;;;13.40;65.18;100489.09;5038535;28;20033;-64
2023/04/28 01:17:46;;;;;;;0.20;0.20;;;;;;;13.32;65.46;100488.19;5037711;28;20486;-66
2023/04/28 01:20:16;;;;;;;0.20;0.20;;;;;;;13.23;66.08;100484.03;5055783;28;20108;-65
2023/04/28 01:22:44;;;;;;;0.20;0.20;;;;;;;13.29;64.53;100493.69;5037147;28;20029;-65
2023/04/28 01:25:09;;;;;;;0.20;0.20;;;;;;;13.22;65.18;100488.00;5037488;28;20025;-63
2023/04/28 01:27:38;;;;;;;0.20;0.20;;;;;;;13.26;64.53;100494.44;5037552;28;20035;-64
2023/04/28 01:30:07;;;;;;;0.20;0.20;;;;;;;13.23;64.83;100489.63;5037413;28;20036;-64
2023/04/28 01:32:35;;;;;;;0.20;0.20;;;;;;;13.27;64.95;100502.47;5034257;28;20033;-65
2023/04/28 01:35:01;;;;;;;0.20;0.20;;;;;;;13.22;66.11;100500.00;5055293;28;20468;-64
2023/04/28 01:37:28;;;;;;;0.20;0.20;;;;;;;13.18;65.92;100495.47;5037906;28;20035;-64
2023/04/28 01:39:59;;;;;;;0.20;0.20;;;;;;;13.17;66.31;100500.25;5037805;28;20028;-65
2023/04/28 01:42:35;;;;;;;0.20;0.20;;;;;;;13.18;65.63;100492.69;5037394;28;20035;-64
2023/04/28 01:45:04;;;;;;;0.20;0.20;;;;;;;13.26;65.63;100502.81;5037847;28;20037;-64
2023/04/28 01:47:30;;;;;;;0.20;0.20;;;;;;;13.22;65.27;100510.34;5036880;28;20040;-63
2023/04/28 01:50:00;;;;;;;0.20;0.20;;;;;;;13.30;64.57;100503.69;5037615;28;20120;-63
2023/04/28 01:52:26;;;;;;;0.20;0.20;;;;;;;13.25;65.03;100517.97;5036998;28;20044;-65
2023/04/28 01:54:57;;;;;;;0.20;0.20;;;;;;;13.18;66.42;100513.06;5036910;28;20036;-63
2023/04/28 01:57:25;;;;;;;0.20;0.20;;;;;;;13.14;67.15;100514.97;5037115;28;20044;-64
2023/04/28 01:59:50;;;;;;;0.20;0.20;;;;;;;13.16;67.16;100523.00;5036793;28;20566;-64
2023/04/28 02:02:19;;;;;;;0.20;0.20;;;;;;;13.12;67.98;100517.34;5037208;28;20112;-63
2023/04/28 02:04:47;;;;;;;0.20;0.20;;;;;;;13.05;68.54;100523.59;5036670;28;20033;-64
2023/04/28 02:07:15;;;;;;;0.20;0.20;;;;;;;13.02;69.20;100515.97;5036659;28;20083;-65
2023/04/28 02:09:40;;;;;;;0.20;0.20;;;;;;;13.07;70.92;100515.66;5036558;28;20553;-66
2023/04/28 02:12:08;;;;;;;0.20;0.20;;;;;;;13.14;72.17;100514.97;5035912;28;20032;-64
2023/04/28 02:14:34;;;;;;;0.20;0.20;;;;;;;13.22;72.21;100527.94;5036582;28;20112;-66
2023/04/28 02:17:01;;;;;;;0.20;0.20;;;;;;;13.21;72.60;100528.25;5036767;28;20071;-64
2023/04/28 02:19:30;;;;;;;0.20;0.20;;;;;;;13.20;72.25;100533.03;5036444;28;20125;-64
2023/04/28 02:21:58;;;;;;;0.20;0.20;;;;;;;13.13;70.95;100526.53;5036896;28;20029;-65
2023/04/28 02:24:29;;;;;;;0.20;0.20;;;;;;;13.04;70.25;100533.16;5037378;28;20032;-66
2023/04/28 02:26:59;;;;;;;0.20;0.20;;;;;;;12.95;69.98;100529.81;5039618;28;20025;-68
2023/04/28 02:29:26;;;;;;;0.20;0.20;;;;;;;13.09;69.23;100532.84;5040182;28;20024;-66
2023/04/28 02:31:52;;;;;;;0.20;0.20;;;;;;;12.94;70.09;100533.75;5036959;28;20079;-64
2023/04/28 02:34:22;;;;;;;0.20;0.20;;;;;;;12.77;71.37;100531.44;5036395;28;20022;-65
2023/04/28 02:36:51;;;;;;;0.20;0.20;;;;;;;12.65;71.22;100543.56;5054371;28;20043;-65
2023/04/28 02:39:24;;;;;;;0.20;0.20;;;;;;;12.56;70.99;100535.41;5036538;28;20028;-65
2023/04/28 02:41:54;;;;;;;0.20;0.20;;;;;;;12.54;71.93;100543.34;5037132;28;20116;-64
2023/04/28 02:44:22;;;;;;;0.20;0.20;;;;;;;12.48;72.79;100544.81;5037955;28;20284;-65
2023/04/28 02:46:51;;;;;;;0.20;0.20;;;;;;;12.49;71.19;100545.63;5036571;28;20208;-65
2023/04/28 02:49:17;;;;;;;0.20;0.20;;;;;;;12.50;71.70;100545.25;5036605;28;20364;-63
2023/04/28 02:51:45;;;;;;;0.20;0.20;;;;;;;12.48;71.61;100553.19;5036067;28;20594;-65
2023/04/28 02:54:15;;;;;;;0.20;0.20;;;;;;;12.45;72.25;100550.31;5035989;28;20021;-65
2023/04/28 02:56:43;;;;;;;0.20;0.20;;;;;;;12.45;71.49;100550.31;5035897;28;20472;-64
2023/04/28 02:59:11;;;;;;;0.20;0.20;;;;;;;12.46;72.13;100552.75;5035917;28;20037;-64
2023/04/28 03:01:39;;;;;;;0.20;0.20;;;;;;;12.50;71.31;100552.81;5036179;28;20128;-65
2023/04/28 03:04:07;;;;;;;0.20;0.20;;;;;;;12.43;72.10;100559.06;5035792;28;20087;-63
2023/04/28 03:06:32;;;;;;;0.25;0.25;;;;;;;12.37;71.71;100566.13;5053370;28;20041;-65
2023/04/28 03:09:03;;;;;;;0.20;0.20;;;;;;;12.33;73.70;100573.59;5036180;28;20033;-65
2023/04/28 03:11:31;;;;;;;0.20;0.20;;;;;;;12.29;74.16;100570.72;5035696;28;20044;-64
2023/04/28 03:14:00;;;;;;;0.20;0.20;;;;;;;12.23;74.44;100571.38;5036246;28;20479;-63
2023/04/28 03:16:25;;;;;;;0.20;0.20;;;;;;;12.25;75.59;100569.84;5036048;28;20098;-63
2023/04/28 03:18:53;;;;;;;0.20;0.20;;;;;;;12.25;76.07;100569.03;5035727;28;20467;-64
2023/04/28 03:21:26;;;;;;;0.20;0.20;;;;;;;12.25;75.58;100566.22;5036275;28;20096;-64
2023/04/28 03:23:52;;;;;;;0.20;0.20;;;;;;;12.18;75.21;100575.25;5038911;28;20040;-63
2023/04/28 03:26:23;;;;;;;0.20;0.20;;;;;;;12.26;76.38;100570.66;5040012;28;20033;-65
2023/04/28 03:28:48;;;;;;;0.20;0.20;;;;;;;12.27;76.05;100575.06;5039777;28;20025;-65
2023/04/28 03:31:19;;;;;;;0.20;0.20;;;;;;;12.33;76.20;100581.97;5039748;28;20083;-63
2023/04/28 03:33:47;;;;;;;0.20;0.20;;;;;;;12.32;75.51;100585.94;5057803;28;20074;-64
2023/04/28 03:36:13;;;;;;;0.20;0.20;;;;;;;12.35;75.41;100574.03;5039594;28;20094;-65
2023/04/28 03:38:41;;;;;;;0.20;0.20;;;;;;;12.36;76.23;100575.66;5040121;28;20041;-63
2023/04/28 03:41:09;;;;;;;0.20;0.20;;;;;;;12.34;76.76;100575.22;5039472;28;20086;-64
2023/04/28 03:43:40;;;;;;;0.20;0.20;;;;;;;12.41;76.13;100580.13;5039344;28;20021;-63
2023/04/28 03:46:06;;;;;;;0.20;0.20;;;;;;;12.45;75.90;100575.44;5039661;28;20060;-64
2023/04/28 03:48:31;;;;;;;0.20;0.20;;;;;;;12.46;76.34;100577.84;5039210;28;20459;-65
2023/04/28 03:50:57;;;;;;;0.20;0.20;;;;;;;12.43;77.00;100580.59;5039425;28;20123;-63
2023/04/28 03:53:24;;;;;;;0.20;0.20;;;;;;;12.40;78.21;100576.53;5038975;28;20202;-64
2023/04/28 03:55:53;;;;;;;0.20;0.20;;;;;;;12.44;77.92;100577.44;5039428;28;20467;-64
2023/04/28 03:58:21;;;;;;;0.20;0.20;;;;;;;12.49;77.68;100573.53;5039672;28;20036;-64
2023/04/28 04:00:46;;;;;;;0.20;0.20;;;;;;;12.45;78.31;100586.59;5039064;28;20483;-64
2023/04/28 04:03:14;;;;;;;0.20;0.20;;;;;;;12.41;78.41;100589.34;5039042;28;20024;-64
2023/04/28 04:05:45;;;;;;;0.20;0.20;;;;;;;12.47;78.69;100595.44;5056988;28;20490;-63
2023/04/28 04:08:13;;;;;;;0.20;0.20;;;;;;;12.45;79.77;100589.41;5039306;28;20101;-65
2023/04/28 04:10:41;;;;;;;0.20;0.20;;;;;;;12.53;79.16;100593.97;5039242;28;20029;-65
2023/04/28 04:13:06;;;;;;;0.20;0.20;;;;;;;12.55;79.46;100592.41;5039190;28;20029;-63
2023/04/28 04:15:34;;;;;;;0.20;0.20;;;;;;;12.53;79.99;100596.75;5038889;28;20047;-65
2023/04/28 04:18:02;;;;;;;0.20;0.20;;;;;;;12.52;79.84;100593.16;5039450;28;20036;-63
2023/04/28 04:20:33;;;;;;;0.20;0.20;;;;;;;12.62;79.58;100599.31;5038981;28;20029;-65
2023/04/28 04:23:02;;;;;;;0.20;0.20;;;;;;;12.50;80.22;100603.88;5039166;28;20041;-65
2023/04/28 04:25:31;;;;;;;0.20;0.20;;;;;;;12.57;81.21;100601.25;5038801;28;20050;-65
2023/04/28 04:27:59;;;;;;;0.20;0.20;;;;;;;12.73;80.87;100617.09;5038941;28;20383;-64
2023/04/28 04:30:27;;;;;;;0.20;0.20;;;;;;;12.74;80.98;100608.38;5038581;28;20094;-64
2023/04/28 04:32:55;;;;;;;0.20;0.20;;;;;;;12.95;81.65;100610.81;5039101;28;20444;-63
2023/04/28 04:35:28;;;;;;;0.20;0.20;;;;;;;13.55;78.70;100619.53;5037544;28;20029;-64
2023/04/28 04:37:59;;;;;;;0.20;0.20;;;;;;;14.14;74.99;100629.31;5038980;28;20029;-64
2023/04/28 04:40:27;;;;;;;0.20;0.20;;;;;;;14.65;72.63;100626.06;5038635;28;20057;-64
2023/04/28 04:42:55;;;;;;;0.20;0.20;;;;;;;15.07;71.09;100613.75;5038363;28;20021;-62
2023/04/28 04:45:21;;;;;;;0.20;0.20;;;;;;;15.45;69.08;100625.81;5038364;28;20033;-64
2023/04/28 04:47:49;;;;;;;0.20;0.20;;;;;;;15.88;67.53;100629.03;5038434;28;20025;-64
2023/04/28 04:50:19;;;;;;;0.20;0.20;;;;;;;16.24;65.06;100625.31;5038213;28;20029;-65
2023/04/28 04:52:47;;;;;;;0.20;0.20;;;;;;;16.76;63.04;100640.06;5037822;28;20479;-64
2023/04/28 04:55:15;;;;;;;0.20;0.20;;;;;;;17.19;61.19;100640.22;5038086;28;20025;-64
2023/04/28 04:57:43;;;;;;;0.20;0.20;;;;;;;17.49;59.44;100611.78;5038195;28;20577;-65
2023/04/28 05:00:09;;;;;;;0.20;0.20;;;;;;;18.02;57.00;100647.63;5037908;28;20518;-62
2023/04/28 05:02:34;;;;;;;0.20;0.20;;;;;;;18.37;56.07;100642.34;5038092;28;20456;-64
2023/04/28 05:05:00;;;;;;;0.20;0.20;;;;;;;18.73;54.74;100652.38;5037897;28;20127;-63
2023/04/28 05:07:28;;;;;;;0.20;0.20;;;;;;;19.26;53.72;100647.72;5038020;28;20041;-64
2023/04/28 05:09:53;;;;;;;0.20;0.20;;;;;;;19.76;51.38;100653.91;5037889;28;20025;-64
2023/04/28 05:12:24;;;;;;;0.20;0.20;;;;;;;20.03;51.17;100653.28;5037559;28;20430;-65
2023/04/28 05:14:52;;;;;;;0.20;0.20;;;;;;;20.40;49.48;100656.19;5055181;28;20031;-65
2023/04/28 05:17:22;;;;;;;0.20;0.20;;;;;;;20.63;49.69;100654.75;5037573;28;20037;-64
2023/04/28 05:19:47;;;;;;;0.20;0.20;;;;;;;20.86;47.10;100659.75;5037373;28;20025;-65
2023/04/28 05:22:15;;;;;;;0.20;0.20;;;;;;;20.80;49.12;100656.59;5037496;28;20036;-64
2023/04/28 05:24:46;;;;;;;0.20;0.20;;;;;;;20.75;49.16;100657.03;5037358;28;20028;-65
2023/04/28 05:27:13;;;;;;;0.20;0.20;;;;;;;20.97;49.29;100660.41;5037521;28;20056;-65
2023/04/28 05:29:44;;;;;;;0.20;0.20;;;;;;;20.00;49.92;100666.22;5037387;28;20037;-65
2023/04/28 05:32:10;;;;;;;0.20;0.20;;;;;;;20.13;50.83;100664.50;5037303;28;20036;-65
2023/04/28 05:34:41;;;;;;;0.20;0.20;;;;;;;20.51;48.97;100670.22;5037052;28;20450;-65
2023/04/28 05:37:14;;;;;;;0.20;0.20;;;;;;;19.98;49.78;100667.84;5037299;28;20029;-63
2023/04/28 05:39:39;;;;;;;0.20;0.20;;;;;;;20.16;49.32;100665.69;5036897;28;20031;-65
2023/04/28 05:42:08;;;;;;;0.20;0.20;;;;;;;20.04;49.39;100669.03;5037330;28;20119;-63
2023/04/28 05:44:38;;;;;;;0.20;0.20;;;;;;;20.75;47.01;100678.88;5036795;28;20460;-65
2023/04/28 05:47:04;;;;;;;0.20;0.20;;;;;;;21.33;47.13;100682.63;5036510;28;20029;-64
2023/04/28 05:49:32;;;;;;;0.20;0.20;;;;;;;21.57;45.97;100672.19;5036986;28;20116;-65
2023/04/28 05:51:58;;;;;;;0.20;0.20;;;;;;;21.33;46.02;100676.97;5036665;28;20052;-64
2023/04/28 05:54:26;;;;;;;0.20;0.20;;;;;;;21.63;46.49;100676.16;5036696;28;20064;-64
2023/04/28 05:56:52;;;;;;;0.20;0.20;;;;;;;21.59;46.78;100678.25;5037131;28;20380;-63
2023/04/28 05:59:18;;;;;;;0.20;0.20;;;;;;;22.10;45.03;100681.88;5036881;28;20021;-65
2023/04/28 06:01:48;;;;;;;0.20;0.20;;;;;;;22.01;45.46;100684.50;5036538;28;20120;-65
2023/04/28 06:04:16;;;;;;;0.20;0.20;;;;;;;22.28;44.71;100687.31;5036400;28;20025;-64
2023/04/28 06:06:46;;;;;;;0.20;0.20;;;;;;;22.39;44.14;100685.88;5036369;28;20053;-65
2023/04/28 06:09:17;;;;;;;0.20;0.20;;;;;;;22.62;44.51;100685.06;5036710;28;20093;-66
2023/04/28 06:11:44;;;;;;;0.20;0.20;;;;;;;22.82;43.84;100685.09;5036898;28;20540;-65
2023/04/28 06:14:12;;;;;;;0.20;0.20;;;;;;;22.84;43.46;100684.63;5036259;28;20025;-64
2023/04/28 06:16:43;;;;;;;0.20;0.20;;;;;;;22.95;43.85;100686.06;5036380;28;20033;-64
2023/04/28 06:19:13;;;;;;;0.20;0.20;;;;;;;22.54;44.93;100688.47;5036533;28;20096;-64
2023/04/28 06:21:42;;;;;;;0.20;0.20;;;;;;;22.74;44.98;100695.78;5054596;28;20044;-64
2023/04/28 06:24:07;;;;;;;0.20;0.20;;;;;;;23.09;42.36;100704.84;5036163;28;20028;-63
2023/04/28 06:26:35;;;;;;;0.10;0.10;;;;;;;23.91;42.11;100694.53;5036136;28;20033;-63
2023/04/28 06:29:05;;;;;;;0.20;0.20;;;;;;;23.56;41.95;100709.56;5036308;28;20064;-63
2023/04/28 06:31:34;;;;;;;0.20;0.20;;;;;;;23.24;44.24;100716.72;5035898;28;20040;-64
2023/04/28 06:34:04;;;;;;;0.20;0.20;;;;;;;22.72;44.39;100709.56;5035900;28;20083;-63
2023/04/28 06:36:30;;;;;;;0.20;0.20;;;;;;;22.88;44.93;100713.78;5035874;28;20053;-62
2023/04/28 06:38:56;;;;;;;0.20;0.20;;;;;;;23.96;43.26;100710.25;5035895;28;20071;-63
2023/04/28 06:41:22;;;;;;;0.10;0.10;;;;;;;22.86;44.18;100704.88;5035764;28;20139;-62
2023/04/28 06:43:48;;;;;;;0.20;0.20;;;;;;;23.79;43.75;100712.28;5036006;28;20043;-65
2023/04/28 06:46:15;;;;;;;0.20;0.20;;;;;;;24.27;43.20;100716.41;5036015;28;20120;-65
2023/04/28 06:48:43;;;;;;;0.20;0.20;;;;;;;24.51;42.17;100715.03;5035731;28;20025;-65
2023/04/28 06:51:14;;;;;;;0.20;0.20;;;;;;;24.84;41.78;100717.81;5036080;28;20039;-63
2023/04/28 06:53:41;;;;;;;0.20;0.20;;;;;;;24.14;43.41;100709.84;5035111;28;20045;-64
2023/04/28 06:56:12;;;;;;;0.13;0.13;;;;;;;23.75;42.43;100712.34;5035438;28;20025;-64
2023/04/28 06:58:40;;;;;;;0.10;0.10;;;;;;;24.14;42.66;100724.06;5034907;28;20032;-66
2023/04/28 07:01:08;;;;;;;0.20;0.20;;;;;;;23.89;43.56;100716.91;5035775;28;20497;-64
2023/04/28 07:03:34;;;;;;;0.20;0.20;;;;;;;23.42;44.07;100719.16;5035629;28;20025;-63
2023/04/28 07:05:59;;;;;;;0.20;0.20;;;;;;;23.92;43.17;100718.09;5035497;28;20044;-65
2023/04/28 07:08:25;;;;;;;0.20;0.20;;;;;;;24.62;42.03;100711.09;5035516;28;20120;-64
2023/04/28 07:10:51;;;;;;;0.10;0.10;;;;;;;24.42;42.22;100720.53;5054116;28;20029;-64
2023/04/28 07:13:25;;;;;;;0.20;0.20;;;;;;;23.96;42.87;100704.56;5035583;28;20037;-63
2023/04/28 07:15:53;;;;;;;0.20;0.20;;;;;;;24.36;42.18;100710.94;5035366;28;20021;-63
2023/04/28 07:18:21;;;;;;;0.20;0.20;;;;;;;24.39;41.98;100710.03;5035271;28;20044;-64
2023/04/28 07:20:50;;;;;;;0.20;0.20;;;;;;;24.30;41.15;100713.50;5053879;28;20064;-64
2023/04/28 07:23:15;;;;;;;0.15;0.15;;;;;;;23.91;43.05;100708.75;5035347;28;20035;-63
2023/04/28 07:25:45;;;;;;;0.10;0.10;;;;;;;24.62;40.94;100708.25;5035268;28;20033;-63
2023/04/28 07:28:12;;;;;;;0.20;0.20;;;;;;;24.06;42.47;100706.38;5035226;28;20033;-63
2023/04/28 07:30:41;;;;;;;0.20;0.20;;;;;;;23.77;43.04;100703.41;5035187;28;20078;-63
2023/04/28 07:33:09;;;;;;;0.20;0.20;;;;;;;23.79;41.75;100700.91;5035669;28;20040;-63
2023/04/28 07:35:39;;;;;;;0.20;0.20;;;;;;;24.26;40.54;100694.91;5035921;28;20029;-63
2023/04/28 07:38:10;;;;;;;0.10;0.10;;;;;;;23.66;42.15;100697.19;5035286;28;20037;-64
2023/04/28 07:40:38;;;;;;;0.20;0.20;;;;;;;24.59;40.05;100706.28;5035785;28;20371;-63
2023/04/28 07:43:04;;;;;;;0.20;0.20;;;;;;;25.56;37.76;100703.09;5035108;28;20098;-63
2023/04/28 07:45:35;;;;;;;0.10;0.10;;;;;;;24.55;38.80;100707.19;5035150;28;20021;-64
2023/04/28 07:48:05;;;;;;;0.10;0.10;;;;;;;23.78;37.87;100716.38;5035430;28;20056;-64
2023/04/28 07:50:33;;;;;;;0.10;0.10;;;;;;;24.33;39.32;100716.69;5035592;28;20424;-63
2023/04/28 07:52:59;;;;;;;0.17;0.17;;;;;;;25.38;37.78;100717.09;5034879;28;20433;-65
2023/04/28 07:55:30;;;;;;;0.20;0.20;;;;;;;25.53;38.18;100715.44;5034914;28;20112;-63
2023/04/28 07:57:59;;;;;;;0.17;0.17;;;;;;;24.96;36.89;100702.03;5035762;28;20418;-62
2023/04/28 08:00:25;;;;;;;0.10;0.10;;;;;;;25.65;36.75;100724.44;5035037;28;20035;-64
2023/04/28 08:02:50;;;;;;;0.10;0.10;;;;;;;25.96;34.74;100713.31;5034875;28;20472;-64
2023/04/28 08:05:16;;;;;;;0.20;0.20;;;;;;;26.33;33.25;100717.41;5035321;28;20078;-62
2023/04/28 08:07:45;;;;;;;0.20;0.20;;;;;;;25.23;32.89;100719.56;5034999;28;20447;-65
2023/04/28 08:10:11;;;;;;;0.20;0.20;;;;;;;24.93;30.65;100722.81;5037994;28;20040;-63
2023/04/28 08:12:40;;;;;;;0.17;0.17;;;;;;;25.46;30.26;100723.38;5038768;28;20047;-63
2023/04/28 08:15:06;;;;;;;0.10;0.10;;;;;;;26.20;31.29;100713.75;5039327;28;20028;-65
2023/04/28 08:17:34;;;;;;;0.20;0.20;;;;;;;26.95;31.32;100717.69;5038652;28;20033;-65
2023/04/28 08:20:04;;;;;;;0.20;0.20;;;;;;;26.90;29.66;100721.16;5039368;28;20028;-65
2023/04/28 08:22:30;;;;;;;0.10;0.10;;;;;;;26.33;31.13;100729.59;5056044;28;20075;-65
2023/04/28 08:25:01;;;;;;;0.10;0.10;;;;;;;26.00;30.43;100729.06;5038479;28;20392;-64
2023/04/28 08:27:26;;;;;;;0.10;0.10;;;;;;;26.58;30.44;100725.94;5038580;28;20029;-63
2023/04/28 08:29:52;;;;;;;0.20;0.20;;;;;;;27.27;29.31;100727.97;5038885;28;20380;-64
2023/04/28 08:32:18;;;;;;;0.20;0.20;;;;;;;26.74;30.39;100736.41;5038456;28;20044;-65
2023/04/28 08:34:46;;;;;;;0.20;0.20;;;;;;;26.18;30.79;100744.78;5038730;28;20116;-63
2023/04/28 08:37:13;;;;;;;0.10;0.10;;;;;;;25.48;31.94;100733.06;5038135;28;20491;-62
2023/04/28 08:39:39;;;;;;;0.20;0.20;;;;;;;25.16;31.99;100736.06;5038011;28;20040;-63
2023/04/28 08:42:04;;;;;;;0.10;0.10;;;;;;;25.32;32.06;100733.16;5038383;28;20029;-65
2023/04/28 08:44:38;;;;;;;0.20;0.20;;;;;;;25.79;30.95;100738.28;5038228;28;20467;-63
2023/04/28 08:47:11;;;;;;;0.10;0.10;;;;;;;26.25;31.32;100738.84;5038386;28;20502;-65
2023/04/28 08:49:41;;;;;;;0.10;0.10;;;;;;;27.25;30.14;100736.19;5038588;28;20021;-63
2023/04/28 08:52:11;;;;;;;0.20;0.20;;;;;;;28.01;28.95;100743.47;5037839;28;20056;-64
2023/04/28 08:54:41;;;;;;;0.20;0.20;;;;;;;26.56;29.50;100741.91;5038552;28;20032;-64
2023/04/28 08:57:10;;;;;;;0.10;0.10;;;;;;;27.06;29.51;100740.97;5037781;28;20178;-63
2023/04/28 08:59:40;;;;;;;0.20;0.20;;;;;;;27.13;29.56;100746.44;5038367;28;20064;-63
2023/04/28 09:02:07;;;;;;;0.10;0.10;;;;;;;26.85;29.12;100744.59;5037803;28;20036;-64
2023/04/28 09:04:33;;;;;;;0.17;0.17;;;;;;;26.34;31.25;100738.94;5038484;28;20503;-63
2023/04/28 09:07:11;;;;;;;0.20;0.20;;;;;;;26.86;30.77;100741.25;5037570;28;20098;-64
2023/04/28 09:09:37;;;;;;;0.10;0.10;;;;;;;26.51;31.81;100723.31;5037643;28;20033;-64
2023/04/28 09:12:03;;;;;;;0.20;0.20;;;;;;;25.95;33.24;100729.63;5037430;28;20125;-64
2023/04/28 09:14:36;;;;;;;0.10;0.10;;;;;;;25.96;32.05;100722.66;5037414;28;20044;-63
2023/04/28 09:17:09;;;;;;;0.10;0.10;;;;;;;26.38;32.95;100731.88;5037738;28;20059;-62
2023/04/28 09:19:36;;;;;;;0.10;0.10;;;;;;;25.59;34.50;100732.75;5037572;28;20017;-64
2023/04/28 09:22:04;;;;;;;0.10;0.10;;;;;;;26.03;32.08;100727.34;5054452;28;20025;-64
2023/04/28 09:24:45;;;;;;;0.20;0.20;;;;;;;26.82;30.48;100729.16;5037134;28;20087;-65
2023/04/28 09:27:14;;;;;;;0.10;0.10;;;;;;;27.07;30.17;100728.28;5055362;28;20028;-64
2023/04/28 09:29:53;;;;;;;0.20;0.20;;;;;;;27.07;29.64;100725.44;5055587;28;20021;-68
2023/04/28 09:32:22;;;;;;;0.20;0.20;;;;;;;27.55;27.42;100731.00;5037043;28;20482;-63
2023/04/28 09:34:51;;;;;;;0.13;0.13;;;;;;;27.93;27.49;100725.03;5037032;28;20028;-64
2023/04/28 09:37:21;;;;;;;0.20;0.20;;;;;;;27.77;27.78;100728.13;5037405;28;20037;-65
2023/04/28 09:39:52;;;;;;;0.10;0.10;;;;;;;27.20;26.71;100730.28;5037003;28;20036;-64
2023/04/28 09:42:38;;;;;;;0.10;0.10;;;;;;;26.44;30.02;100737.81;5036771;28;20128;-63
2023/04/28 09:45:14;;;;;;;0.20;0.20;;;;;;;26.43;28.87;100721.97;5036733;28;20021;-64
2023/04/28 09:47:41;;;;;;;0.17;0.17;;;;;;;26.81;28.12;100732.47;5036846;28;20072;-63
2023/04/28 09:50:13;;;;;;;0.20;0.20;;;;;;;27.32;27.25;100730.19;5036735;28;20071;-64
2023/04/28 09:52:40;;;;;;;0.20;0.20;;;;;;;27.72;26.85;100718.09;5054234;28;20041;-64
2023/04/28 09:55:11;;;;;;;0.10;0.10;;;;;;;26.91;26.99;100699.91;5036662;28;20064;-63
2023/04/28 09:57:38;;;;;;;0.17;0.17;;;;;;;27.54;27.00;100720.81;5036621;28;20029;-64
2023/04/28 10:00:06;;;;;;;0.10;0.10;;;;;;;28.07;25.50;100721.59;5036788;28;20040;-63
2023/04/28 10:02:34;;;;;;;0.10;0.10;;;;;;;26.08;27.78;100713.31;5036681;28;20029;-62
2023/04/28 10:05:04;;;;;;;0.20;0.20;;;;;;;27.06;27.07;100708.72;5036897;28;20029;-62
2023/04/28 10:07:34;;;;;;;0.20;0.20;;;;;;;26.77;26.80;100694.69;5036591;28;20028;-63
2023/04/28 10:10:00;;;;;;;0.10;0.10;;;;;;;26.85;25.75;100690.34;5036540;28;20025;-63
2023/04/28 10:12:28;;;;;;;0.20;0.20;;;;;;;26.57;26.83;100677.88;5036213;28;20036;-62
2023/04/28 10:14:56;;;;;;;0.20;0.20;;;;;;;26.61;27.53;100673.63;5036713;28;20087;-63
2023/04/28 10:17:27;;;;;;;0.20;0.20;;;;;;;26.47;28.59;100668.41;5054351;28;20029;-63
2023/04/28 10:19:57;;;;;;;0.10;0.10;;;;;;;26.83;28.74;100664.28;5054156;28;20116;-62
2023/04/28 10:22:44;;;;;;;0.10;0.10;;;;;;;26.60;28.72;100674.91;5036219;28;20464;-62
2023/04/28 10:25:13;;;;;;;0.20;0.20;;;;;;;26.09;29.86;100655.00;5035992;28;20028;-62
2023/04/28 10:27:41;;;;;;;0.10;0.10;;;;;;;26.48;29.89;100652.91;5036609;28;20202;-63
2023/04/28 10:30:21;;;;;;;0.20;0.20;;;;;;;26.75;28.75;100645.84;5036732;28;20040;-63
2023/04/28 10:33:07;;;;;;;0.10;0.10;;;;;;;27.17;27.47;100651.25;5034976;28;20020;-62
2023/04/28 10:35:35;;;;;;;0.15;0.15;;;;;;;26.71;27.67;100633.75;5034800;28;20484;-63
2023/04/28 10:38:09;;;;;;;0.20;0.20;;;;;;;26.42;26.86;100642.53;5035814;28;20112;-63
2023/04/28 10:40:42;;;;;;;0.10;0.10;;;;;;;26.55;27.31;100637.59;5035642;28;20029;-61
2023/04/28 10:43:10;;;;;;;0.10;0.10;;;;;;;26.93;26.67;100617.44;5036260;28;20025;-63
2023/04/28 10:45:47;;;;;;;0.10;0.10;;;;;;;27.57;24.82;100637.00;5035784;28;20357;-63
2023/04/28 10:48:15;;;;;;;0.10;0.10;;;;;;;27.17;25.19;100628.41;5035527;28;20025;-62
2023/04/28 10:51:11;;;;;;;0.10;0.10;;;;;;;27.06;25.09;100626.72;5035525;28;20067;-63
2023/04/28 10:56:15;;;;;;;0.20;0.20;;;;;;;27.05;22.56;100625.09;5053438;28;20041;-63
2023/04/28 10:58:47;;;;;;;0.10;0.10;;;;;;;26.86;24.25;100627.06;5035376;28;20483;-62
2023/04/28 11:01:25;;;;;;;0.20;0.20;;;;;;;27.61;21.91;100589.88;5035470;28;20032;-63
2023/04/28 11:04:12;;;;;;;0.20;0.20;;;;;;;26.96;21.62;100627.94;5035268;28;20064;-62
2023/04/28 11:07:12;;;;;;;0.10;0.10;;;;;;;27.46;20.26;100630.94;5035799;28;20120;-64
2023/04/28 11:09:40;;;;;;;0.10;0.10;;;;;;;27.33;19.96;100633.91;5035240;28;20060;-62
2023/04/28 11:12:09;;;;;;;0.10;0.10;;;;;;;27.61;21.09;100626.25;5035287;28;20116;-63
2023/04/28 11:14:39;;;;;;;0.10;0.10;;;;;;;27.73;20.54;100598.84;5035465;28;20036;-61
2023/04/28 11:17:05;;;;;;;0.20;0.20;;;;;;;27.21;20.54;100631.91;5035786;28;20033;-64
2023/04/28 11:19:36;;;;;;;0.20;0.20;;;;;;;27.63;20.20;100623.69;5035456;28;20491;-62
2023/04/28 11:22:18;;;;;;;0.13;0.13;;;;;;;27.49;21.79;100621.44;5035753;28;20056;-63
2023/04/28 11:25:02;;;;;;;0.10;0.10;;;;;;;26.95;22.53;100620.59;5053033;28;20029;-63
2023/04/28 11:27:32;;;;;;;0.20;0.20;;;;;;;27.71;21.36;100627.09;5035115;28;20124;-62
2023/04/28 11:29:59;;;;;;;0.10;0.10;;;;;;;27.94;20.82;100626.53;5035380;28;20449;-62
2023/04/28 11:32:28;;;;;;;0.20;0.20;;;;;;;27.61;21.80;100604.16;5035298;28;20052;-62
2023/04/28 11:34:56;;;;;;;0.10;0.10;;;;;;;28.35;20.05;100633.00;5035127;28;20509;-63